Pinned toot

交通機関が悪天候や災害のために遅延・運休した際は、係員に怒鳴っても仕方ありません。業務が滞るのでやめましょう。
最新情報に注意し、乗る前と降りた後の交通も確認、空いている内に代替手段の確保、飲食店にでも入ってゆっくりするのが吉。
そういう時こそ心に余裕を。トイレは行ける時に。

KORD/ORD:シカゴ・オヘア(アメリカ合衆国・イリノイ州)
吹雪
191851Z 03024G32KT 4SM BLSN OVC015 M04/M06 A2999 RMK AO2 PK WND 02034/1837 SNE1759B38E48 SLP165 P0000 T10391061 $

KORD/ORD:シカゴ・オヘア(アメリカ合衆国・イリノイ州)
吹雪
191751Z 04017G29KT 4SM -SN BLSN OVC016 M04/M06 A3003 RMK AO2 PK WND 05029/1748 SLP178 4/005 933008 P0000 60002 T10391061 11033 21039 50001 $

KORD/ORD:シカゴ・オヘア(アメリカ合衆国・イリノイ州)
吹雪
191551Z 05018G23KT 2 1/2SM R10L/4000VP6000FT -SN BLSN BKN014 OVC020 M03/M06 A3005 RMK AO2 PK WND 05030/1526 VIS 2V3 SLP185 P0000 T10331056 $

KORD/ORD:シカゴ・オヘア(アメリカ合衆国・イリノイ州)
吹雪
191443Z 04017KT 1SM R10L/4000VP6000FT -SN BLSN SCT011 BKN015 OVC024 M04/M05 A3003 RMK AO2 PK WND 04026/1430 P0000 T10391050 $

KORD/ORD:シカゴ・オヘア(アメリカ合衆国・イリノイ州)
吹雪
191337Z 05018G26KT 3/4SM R10L/4500V6000FT -SN BLSN VV010 M04/M05 A3003 RMK AO2 PK WND 04026/1330 P0001 T10391050 $

明日は暖気→雨→寒気流入となる所が多いようですよ。
特に道央や道南は深夜以降かなり不安定に見える…。

KIAH/IAH:ヒューストン/ジョージ・ブッシュ・インターコンチネンタル(アメリカ合衆国・テキサス州)
中程度の雷
190836Z 24011G18KT 1 1/2SM +TSRA BR BKN014CB OVC025 21/19 A2972 RMK AO2 LTG DSNT ALQDS RAB21 TSB30 FRQ LTGICCCCA ALQDS TS ALQDS MOV NE P0004 T02060194

RJFK/KOJ:鹿児島(日本)
周辺に火山灰雲
190800Z 14002KT CAVOK 11/03 Q1020 RMK 7SC060 A3014 VOLCANIC ASH CLOUD S

RJFK/KOJ:鹿児島(日本)
周辺に火山灰雲
190700Z 15006KT 9999 FEW030 BKN060 12/04 Q1020 RMK 1CU030 7SC060 A3015 VOLCANIC ASH CLOUD S

KORD/ORD:シカゴ・オヘア(アメリカ合衆国・イリノイ州)
積雪の急増(増加量1inch/h・積雪深2inch)
190651Z 07014G21KT 3/4SM R10L/P6000FT -SN BR OVC009 M03/M03 A3008 RMK AO2 SLP194 SNINCR 1/2 P0005 T10281033

RJFK/KOJ:鹿児島(日本)
周辺に火山灰雲
190600Z 29003KT 250V330 9999 FEW030 BKN050 13/02 Q1021 RMK 1CU030 7SC050 A3016 VOLCANIC ASH CLOUD S

RJFK/KOJ:鹿児島(日本)
周辺に火山灰雲
190500Z 30008KT 270V330 9999 FEW030 BKN050 13/02 Q1022 RMK 1CU030 7SC050 A3018 VOLCANIC ASH CLOUD S

RJFK/KOJ:鹿児島(日本)
周辺に火山灰雲
190300Z 29009KT 9999 FEW030 BKN040 13/02 Q1024 RMK 1CU030 6CU040 A3025 VOLCANIC ASH CLOUD S

RJCN/SHB:中標津(日本・北海道)
地吹雪
190200Z 30013G26KT 270V340 9999 DRSN FEW015 M03/M12 Q1009

RJFK/KOJ:鹿児島(日本)
周辺に火山灰雲
190200Z 36008KT 9999 FEW030 10/M00 Q1025 RMK 1CU030 A3029 VOLCANIC ASH CLOUD S

RJFK/KOJ:鹿児島(日本)
周辺に火山灰雲
190000Z 35003KT 9999 FEW005 02/M04 Q1026 RMK 1ST005 A3030 VOLCANIC ASH CLOUD SE-S

RJBT/TKG:但馬(日本・兵庫県)
視程悪化(200m)
182330Z 20004KT 0200 FG VV005 02/02 Q1023

RJFK/KOJ:鹿児島(日本)
周辺に火山灰雲
182300Z 35003KT 9999 FEW005 M01/M05 Q1025 RMK 1ST005 A3029 VOLCANIC ASH CLOUD SE-S

おまけ。
(石川県) では、 (竜巻の子供で、接地していないもの) が報じられていました。

島代表、
完全自動通報のみなのか、 という現象としては報じられていませんが、強雪と強風は報じられています。

Show more
mstdn.jp

Mastodon日本鯖です.